Terminal Aerodrome Forecast
Issued by NWS Sioux Falls, SD

Home | Current Version | Previous Version | Text Only | Print | Product List | Glossary On
Versions: 1 2 3 4 5 6 7 8 9 10 11 12 13 14 15 16 17
000
FTUS43 KFSD 222322
TAFHON
TAF
KHON 222322Z 2300/2324 22008KT P6SM SKC
     FM230300 19006KT P6SM SKC
     FM230900 19008KT P6SM SKC WS014/22040KT
     FM231300 18008KT P6SM FEW250
     FM231900 18013G20KT P6SM FEW250=

USA.gov is the U.S. government's official web portal to all federal, state and local government web resources and services.